Terminal Aerodrome Forecast
Issued by NWS

Home | Current Version | Previous Version | Graphics & Text | Print | Product List | Glossary On
Versions: 1 2 3 4 5 6 7 8 9 10 11 12
000
FTUS43 KOAX 011727
TAFCDR
TAF
KCDR 011727Z 0118/0218 17005KT P6SM SKC
     FM011900 01008KT P6SM VCTS SCT080CB
     FM012300 05008KT P6SM SCT080=

USA.gov is the U.S. government's official web portal to all federal, state and local government web resources and services.